sensor_id;sensor_type;location;lat;lon;timestamp;temperature;humidity
56512;DHT22;42408;53.238;5.686;2022-10-29T00:01:11;13.20;99.90
56512;DHT22;42408;53.238;5.686;2022-10-29T00:03:37;13.20;99.90
56512;DHT22;42408;53.238;5.686;2022-10-29T00:06:04;13.20;99.90
56512;DHT22;42408;53.238;5.686;2022-10-29T00:08:30;13.20;99.90
56512;DHT22;42408;53.238;5.686;2022-10-29T00:11:03;13.20;99.90
56512;DHT22;42408;53.238;5.686;2022-10-29T00:13:30;13.10;99.90
56512;DHT22;42408;53.238;5.686;2022-10-29T00:15:55;13.10;99.90
56512;DHT22;42408;53.238;5.686;2022-10-29T00:18:21;13.00;99.90
56512;DHT22;42408;53.238;5.686;2022-10-29T00:20:47;13.00;99.90
56512;DHT22;42408;53.238;5.686;2022-10-29T00:23:13;12.90;99.90
56512;DHT22;42408;53.238;5.686;2022-10-29T00:25:38;12.90;99.90
56512;DHT22;42408;53.238;5.686;2022-10-29T00:28:04;12.90;99.90
56512;DHT22;42408;53.238;5.686;2022-10-29T00:30:29;12.90;99.90
56512;DHT22;42408;53.238;5.686;2022-10-29T00:32:55;12.90;99.90
56512;DHT22;42408;53.238;5.686;2022-10-29T00:35:21;12.90;99.90
56512;DHT22;42408;53.238;5.686;2022-10-29T00:37:46;12.90;99.90
56512;DHT22;42408;53.238;5.686;2022-10-29T00:40:12;12.90;99.90
56512;DHT22;42408;53.238;5.686;2022-10-29T00:42:37;12.90;99.90
56512;DHT22;42408;53.238;5.686;2022-10-29T00:45:03;12.90;99.90
56512;DHT22;42408;53.238;5.686;2022-10-29T00:47:30;12.90;99.90
56512;DHT22;42408;53.238;5.686;2022-10-29T00:50:00;12.90;99.90
56512;DHT22;42408;53.238;5.686;2022-10-29T00:52:28;12.80;99.90
56512;DHT22;42408;53.238;5.686;2022-10-29T00:54:55;12.80;99.90
56512;DHT22;42408;53.238;5.686;2022-10-29T00:57:28;12.90;99.90
56512;DHT22;42408;53.238;5.686;2022-10-29T00:59:55;12.90;99.90
56512;DHT22;42408;53.238;5.686;2022-10-29T01:02:21;12.90;99.90
56512;DHT22;42408;53.238;5.686;2022-10-29T01:04:47;12.90;99.90
56512;DHT22;42408;53.238;5.686;2022-10-29T01:07:12;12.80;99.90
56512;DHT22;42408;53.238;5.686;2022-10-29T01:09:38;12.90;99.90
56512;DHT22;42408;53.238;5.686;2022-10-29T01:12:09;12.80;99.90
56512;DHT22;42408;53.238;5.686;2022-10-29T01:17:27;12.80;99.90
56512;DHT22;42408;53.238;5.686;2022-10-29T01:35:25;12.80;99.90
56512;DHT22;42408;53.238;5.686;2022-10-29T01:42:46;12.50;99.90
56512;DHT22;42408;53.238;5.686;2022-10-29T01:45:15;12.50;99.90
56512;DHT22;42408;53.238;5.686;2022-10-29T01:47:48;12.50;99.90
56512;DHT22;42408;53.238;5.686;2022-10-29T01:50:16;12.50;99.90
56512;DHT22;42408;53.238;5.686;2022-10-29T01:52:43;12.40;99.90
56512;DHT22;42408;53.238;5.686;2022-10-29T01:55:09;12.40;99.90
56512;DHT22;42408;53.238;5.686;2022-10-29T01:57:35;12.30;99.90
56512;DHT22;42408;53.238;5.686;2022-10-29T02:00:03;12.30;99.90
56512;DHT22;42408;53.238;5.686;2022-10-29T02:05:24;12.20;99.90
56512;DHT22;42408;53.238;5.686;2022-10-29T02:10:39;12.30;99.90
56512;DHT22;42408;53.238;5.686;2022-10-29T02:13:08;12.30;99.90
56512;DHT22;42408;53.238;5.686;2022-10-29T02:15:42;12.30;99.90
56512;DHT22;42408;53.238;5.686;2022-10-29T02:18:10;12.30;99.90
56512;DHT22;42408;53.238;5.686;2022-10-29T02:20:40;12.20;99.90
56512;DHT22;42408;53.238;5.686;2022-10-29T02:23:05;12.30;99.90
56512;DHT22;42408;53.238;5.686;2022-10-29T02:25:31;12.10;99.90
56512;DHT22;42408;53.238;5.686;2022-10-29T02:27:56;12.20;99.90
56512;DHT22;42408;53.238;5.686;2022-10-29T02:30:22;12.10;99.90
56512;DHT22;42408;53.238;5.686;2022-10-29T02:32:47;12.20;99.90
56512;DHT22;42408;53.238;5.686;2022-10-29T02:35:13;12.10;99.90
56512;DHT22;42408;53.238;5.686;2022-10-29T02:37:38;12.10;99.90
56512;DHT22;42408;53.238;5.686;2022-10-29T02:40:04;12.10;99.90
56512;DHT22;42408;53.238;5.686;2022-10-29T02:42:29;12.10;99.90
56512;DHT22;42408;53.238;5.686;2022-10-29T02:44:55;12.10;99.90
56512;DHT22;42408;53.238;5.686;2022-10-29T02:47:20;12.10;99.90
56512;DHT22;42408;53.238;5.686;2022-10-29T02:49:46;12.10;99.90
56512;DHT22;42408;53.238;5.686;2022-10-29T02:52:11;12.10;99.90
56512;DHT22;42408;53.238;5.686;2022-10-29T02:54:37;12.00;99.90
56512;DHT22;42408;53.238;5.686;2022-10-29T02:57:03;12.10;99.90
56512;DHT22;42408;53.238;5.686;2022-10-29T02:59:29;12.00;99.90
56512;DHT22;42408;53.238;5.686;2022-10-29T03:01:54;12.00;99.90
56512;DHT22;42408;53.238;5.686;2022-10-29T03:04:20;12.00;99.90
56512;DHT22;42408;53.238;5.686;2022-10-29T03:06:45;12.00;99.90
56512;DHT22;42408;53.238;5.686;2022-10-29T03:09:11;12.00;99.90
56512;DHT22;42408;53.238;5.686;2022-10-29T03:11:36;11.90;99.90
56512;DHT22;42408;53.238;5.686;2022-10-29T03:14:02;11.90;99.90
56512;DHT22;42408;53.238;5.686;2022-10-29T03:16:27;11.90;99.90
56512;DHT22;42408;53.238;5.686;2022-10-29T03:18:53;11.90;99.90
56512;DHT22;42408;53.238;5.686;2022-10-29T03:21:18;11.90;99.90
56512;DHT22;42408;53.238;5.686;2022-10-29T03:23:44;11.80;99.90
56512;DHT22;42408;53.238;5.686;2022-10-29T03:26:09;11.80;99.90
56512;DHT22;42408;53.238;5.686;2022-10-29T03:28:35;11.80;99.90
56512;DHT22;42408;53.238;5.686;2022-10-29T03:31:00;11.80;99.90
56512;DHT22;42408;53.238;5.686;2022-10-29T03:33:26;11.80;99.90
56512;DHT22;42408;53.238;5.686;2022-10-29T03:36:10;11.80;99.90
56512;DHT22;42408;53.238;5.686;2022-10-29T03:38:36;11.80;99.90
56512;DHT22;42408;53.238;5.686;2022-10-29T03:41:01;11.70;99.90
56512;DHT22;42408;53.238;5.686;2022-10-29T03:43:33;11.70;99.90
56512;DHT22;42408;53.238;5.686;2022-10-29T03:45:59;11.70;99.90
56512;DHT22;42408;53.238;5.686;2022-10-29T03:48:24;11.70;99.90
56512;DHT22;42408;53.238;5.686;2022-10-29T03:50:59;11.70;99.90
56512;DHT22;42408;53.238;5.686;2022-10-29T03:53:26;11.70;99.90
56512;DHT22;42408;53.238;5.686;2022-10-29T03:55:52;11.70;99.90
56512;DHT22;42408;53.238;5.686;2022-10-29T03:58:18;11.70;99.90
56512;DHT22;42408;53.238;5.686;2022-10-29T04:00:43;11.70;99.90
56512;DHT22;42408;53.238;5.686;2022-10-29T04:03:09;11.70;99.90
56512;DHT22;42408;53.238;5.686;2022-10-29T04:05:34;11.70;99.90
56512;DHT22;42408;53.238;5.686;2022-10-29T04:08:00;11.70;99.90
56512;DHT22;42408;53.238;5.686;2022-10-29T04:10:25;11.70;99.90
56512;DHT22;42408;53.238;5.686;2022-10-29T04:12:51;12.30;99.90
56512;DHT22;42408;53.238;5.686;2022-10-29T04:15:17;11.70;99.90
56512;DHT22;42408;53.238;5.686;2022-10-29T04:17:42;11.70;99.90
56512;DHT22;42408;53.238;5.686;2022-10-29T04:20:08;11.70;99.90
56512;DHT22;42408;53.238;5.686;2022-10-29T04:22:34;11.70;99.90
56512;DHT22;42408;53.238;5.686;2022-10-29T04:24:59;11.80;99.90
56512;DHT22;42408;53.238;5.686;2022-10-29T04:27:25;11.70;99.90
56512;DHT22;42408;53.238;5.686;2022-10-29T04:29:51;11.80;99.90
56512;DHT22;42408;53.238;5.686;2022-10-29T04:32:16;11.80;99.90
56512;DHT22;42408;53.238;5.686;2022-10-29T04:34:42;11.80;99.90
56512;DHT22;42408;53.238;5.686;2022-10-29T04:37:07;11.80;99.90
56512;DHT22;42408;53.238;5.686;2022-10-29T04:39:33;11.90;99.90
56512;DHT22;42408;53.238;5.686;2022-10-29T04:41:59;11.80;99.90
56512;DHT22;42408;53.238;5.686;2022-10-29T04:44:24;12.00;99.90
56512;DHT22;42408;53.238;5.686;2022-10-29T04:46:50;11.90;99.90
56512;DHT22;42408;53.238;5.686;2022-10-29T04:49:16;11.90;99.90
56512;DHT22;42408;53.238;5.686;2022-10-29T04:51:41;11.90;99.90
56512;DHT22;42408;53.238;5.686;2022-10-29T04:54:07;11.90;99.90
56512;DHT22;42408;53.238;5.686;2022-10-29T04:56:32;12.00;99.90
56512;DHT22;42408;53.238;5.686;2022-10-29T04:58:58;12.00;99.90
56512;DHT22;42408;53.238;5.686;2022-10-29T05:01:23;12.00;99.90
56512;DHT22;42408;53.238;5.686;2022-10-29T05:03:49;11.90;99.90
56512;DHT22;42408;53.238;5.686;2022-10-29T05:06:14;12.00;99.90
56512;DHT22;42408;53.238;5.686;2022-10-29T05:08:40;12.00;99.90
56512;DHT22;42408;53.238;5.686;2022-10-29T05:11:05;12.00;99.90
56512;DHT22;42408;53.238;5.686;2022-10-29T05:13:31;12.10;99.90
56512;DHT22;42408;53.238;5.686;2022-10-29T05:15:57;12.10;99.90
56512;DHT22;42408;53.238;5.686;2022-10-29T05:18:22;12.10;99.90
56512;DHT22;42408;53.238;5.686;2022-10-29T05:20:51;12.10;99.90
56512;DHT22;42408;53.238;5.686;2022-10-29T05:23:16;12.20;99.90
56512;DHT22;42408;53.238;5.686;2022-10-29T05:25:42;12.20;99.90
56512;DHT22;42408;53.238;5.686;2022-10-29T05:30:33;12.20;99.90
56512;DHT22;42408;53.238;5.686;2022-10-29T05:32:59;12.20;99.90
56512;DHT22;42408;53.238;5.686;2022-10-29T05:35:24;12.30;99.90
56512;DHT22;42408;53.238;5.686;2022-10-29T05:37:54;12.30;99.90
56512;DHT22;42408;53.238;5.686;2022-10-29T05:40:20;12.30;99.90
56512;DHT22;42408;53.238;5.686;2022-10-29T05:42:45;12.30;99.90
56512;DHT22;42408;53.238;5.686;2022-10-29T05:45:11;12.40;99.90
56512;DHT22;42408;53.238;5.686;2022-10-29T05:47:37;12.50;99.90
56512;DHT22;42408;53.238;5.686;2022-10-29T05:50:02;12.50;99.90
56512;DHT22;42408;53.238;5.686;2022-10-29T05:52:28;12.50;99.90
56512;DHT22;42408;53.238;5.686;2022-10-29T05:54:54;12.50;99.90
56512;DHT22;42408;53.238;5.686;2022-10-29T05:57:19;12.50;99.90
56512;DHT22;42408;53.238;5.686;2022-10-29T05:59:45;12.60;99.90
56512;DHT22;42408;53.238;5.686;2022-10-29T06:02:10;12.60;99.90
56512;DHT22;42408;53.238;5.686;2022-10-29T06:04:36;12.70;99.90
56512;DHT22;42408;53.238;5.686;2022-10-29T06:07:01;12.70;99.90
56512;DHT22;42408;53.238;5.686;2022-10-29T06:09:27;12.70;99.90
56512;DHT22;42408;53.238;5.686;2022-10-29T06:11:53;12.70;99.90
56512;DHT22;42408;53.238;5.686;2022-10-29T06:14:19;12.70;99.90
56512;DHT22;42408;53.238;5.686;2022-10-29T06:16:44;12.70;99.90
56512;DHT22;42408;53.238;5.686;2022-10-29T06:19:10;12.70;99.90
56512;DHT22;42408;53.238;5.686;2022-10-29T06:21:35;12.70;99.90
56512;DHT22;42408;53.238;5.686;2022-10-29T06:24:01;12.70;99.90
56512;DHT22;42408;53.238;5.686;2022-10-29T06:26:26;12.70;99.90
56512;DHT22;42408;53.238;5.686;2022-10-29T06:28:52;12.70;99.90
56512;DHT22;42408;53.238;5.686;2022-10-29T06:31:18;12.70;99.90
56512;DHT22;42408;53.238;5.686;2022-10-29T06:33:43;12.80;99.90
56512;DHT22;42408;53.238;5.686;2022-10-29T06:36:09;12.90;99.90
56512;DHT22;42408;53.238;5.686;2022-10-29T06:38:34;12.80;99.90
56512;DHT22;42408;53.238;5.686;2022-10-29T06:41:00;12.70;99.90
56512;DHT22;42408;53.238;5.686;2022-10-29T06:43:25;12.70;99.90
56512;DHT22;42408;53.238;5.686;2022-10-29T06:45:51;12.80;99.90
56512;DHT22;42408;53.238;5.686;2022-10-29T06:48:16;12.70;99.90
56512;DHT22;42408;53.238;5.686;2022-10-29T06:50:42;12.70;99.90
56512;DHT22;42408;53.238;5.686;2022-10-29T06:53:08;12.70;99.90
56512;DHT22;42408;53.238;5.686;2022-10-29T06:55:35;12.70;99.90
56512;DHT22;42408;53.238;5.686;2022-10-29T06:58:02;12.70;99.90
56512;DHT22;42408;53.238;5.686;2022-10-29T07:00:28;12.70;99.90
56512;DHT22;42408;53.238;5.686;2022-10-29T07:02:54;12.80;99.90
56512;DHT22;42408;53.238;5.686;2022-10-29T07:05:19;12.80;99.90
56512;DHT22;42408;53.238;5.686;2022-10-29T07:07:45;12.80;99.90
56512;DHT22;42408;53.238;5.686;2022-10-29T07:10:10;12.80;99.90
56512;DHT22;42408;53.238;5.686;2022-10-29T07:12:39;12.80;99.90
56512;DHT22;42408;53.238;5.686;2022-10-29T07:15:06;12.80;99.90
56512;DHT22;42408;53.238;5.686;2022-10-29T07:17:31;12.90;99.90
56512;DHT22;42408;53.238;5.686;2022-10-29T07:19:57;12.90;99.90
56512;DHT22;42408;53.238;5.686;2022-10-29T07:22:22;12.90;99.90
56512;DHT22;42408;53.238;5.686;2022-10-29T07:24:48;12.90;99.90
56512;DHT22;42408;53.238;5.686;2022-10-29T07:27:13;12.90;99.90
56512;DHT22;42408;53.238;5.686;2022-10-29T07:29:39;13.00;99.90
56512;DHT22;42408;53.238;5.686;2022-10-29T07:32:04;13.00;99.90
56512;DHT22;42408;53.238;5.686;2022-10-29T07:34:30;13.00;99.90
56512;DHT22;42408;53.238;5.686;2022-10-29T07:36:55;13.50;99.90
56512;DHT22;42408;53.238;5.686;2022-10-29T07:39:21;13.10;99.90
56512;DHT22;42408;53.238;5.686;2022-10-29T07:41:46;13.10;99.90
56512;DHT22;42408;53.238;5.686;2022-10-29T07:44:12;13.10;99.90
56512;DHT22;42408;53.238;5.686;2022-10-29T07:46:38;13.10;99.90
56512;DHT22;42408;53.238;5.686;2022-10-29T07:49:03;13.10;99.90
56512;DHT22;42408;53.238;5.686;2022-10-29T07:51:29;13.10;99.90
56512;DHT22;42408;53.238;5.686;2022-10-29T07:53:54;13.10;99.90
56512;DHT22;42408;53.238;5.686;2022-10-29T07:56:20;13.10;99.90
56512;DHT22;42408;53.238;5.686;2022-10-29T07:58:45;13.20;99.90
56512;DHT22;42408;53.238;5.686;2022-10-29T08:01:11;13.20;99.90
56512;DHT22;42408;53.238;5.686;2022-10-29T08:03:36;13.20;99.90
56512;DHT22;42408;53.238;5.686;2022-10-29T08:06:02;13.30;99.90
56512;DHT22;42408;53.238;5.686;2022-10-29T08:08:27;13.30;99.90
56512;DHT22;42408;53.238;5.686;2022-10-29T08:10:57;13.30;99.90
56512;DHT22;42408;53.238;5.686;2022-10-29T08:13:22;13.30;99.90
56512;DHT22;42408;53.238;5.686;2022-10-29T08:15:48;13.40;99.90
56512;DHT22;42408;53.238;5.686;2022-10-29T08:18:14;13.40;99.90
56512;DHT22;42408;53.238;5.686;2022-10-29T08:20:40;13.50;99.90
56512;DHT22;42408;53.238;5.686;2022-10-29T08:23:06;13.50;99.90
56512;DHT22;42408;53.238;5.686;2022-10-29T08:25:32;13.50;99.90
56512;DHT22;42408;53.238;5.686;2022-10-29T08:28:01;13.60;99.90
56512;DHT22;42408;53.238;5.686;2022-10-29T08:30:26;13.60;99.90
56512;DHT22;42408;53.238;5.686;2022-10-29T08:32:52;13.70;99.90
56512;DHT22;42408;53.238;5.686;2022-10-29T08:35:18;13.70;99.90
56512;DHT22;42408;53.238;5.686;2022-10-29T08:37:43;13.70;99.90
56512;DHT22;42408;53.238;5.686;2022-10-29T08:45:46;13.80;99.90
56512;DHT22;42408;53.238;5.686;2022-10-29T08:50:42;13.90;99.90
56512;DHT22;42408;53.238;5.686;2022-10-29T08:53:14;13.90;99.90
56512;DHT22;42408;53.238;5.686;2022-10-29T08:55:40;13.90;99.90
56512;DHT22;42408;53.238;5.686;2022-10-29T08:58:17;14.00;99.90
56512;DHT22;42408;53.238;5.686;2022-10-29T09:00:44;14.00;99.90
56512;DHT22;42408;53.238;5.686;2022-10-29T09:03:13;14.00;99.90
56512;DHT22;42408;53.238;5.686;2022-10-29T09:10:58;14.10;99.90
56512;DHT22;42408;53.238;5.686;2022-10-29T09:15:59;14.10;99.90
56512;DHT22;42408;53.238;5.686;2022-10-29T09:18:30;14.10;99.90
56512;DHT22;42408;53.238;5.686;2022-10-29T09:26:23;14.30;99.90
56512;DHT22;42408;53.238;5.686;2022-10-29T09:28:57;14.20;99.90
56512;DHT22;42408;53.238;5.686;2022-10-29T09:31:33;14.30;99.90
56512;DHT22;42408;53.238;5.686;2022-10-29T09:34:02;14.30;99.90
56512;DHT22;42408;53.238;5.686;2022-10-29T09:36:28;14.40;99.90
56512;DHT22;42408;53.238;5.686;2022-10-29T09:38:56;14.40;99.90
56512;DHT22;42408;53.238;5.686;2022-10-29T09:41:24;14.50;99.90
56512;DHT22;42408;53.238;5.686;2022-10-29T09:44:05;14.50;99.90
56512;DHT22;42408;53.238;5.686;2022-10-29T09:46:55;14.60;99.90
56512;DHT22;42408;53.238;5.686;2022-10-29T09:51:56;14.70;99.90
56512;DHT22;42408;53.238;5.686;2022-10-29T09:54:22;14.80;99.90
56512;DHT22;42408;53.238;5.686;2022-10-29T09:56:49;14.90;99.90
56512;DHT22;42408;53.238;5.686;2022-10-29T10:01:46;15.00;99.90
56512;DHT22;42408;53.238;5.686;2022-10-29T10:04:21;15.00;99.90
56512;DHT22;42408;53.238;5.686;2022-10-29T10:15:02;15.30;99.90
56512;DHT22;42408;53.238;5.686;2022-10-29T10:17:30;15.30;99.90
56512;DHT22;42408;53.238;5.686;2022-10-29T10:20:24;15.40;99.90
56512;DHT22;42408;53.238;5.686;2022-10-29T10:22:50;15.40;99.90
56512;DHT22;42408;53.238;5.686;2022-10-29T10:28:42;15.50;99.90
56512;DHT22;42408;53.238;5.686;2022-10-29T10:33:33;15.60;99.90
56512;DHT22;42408;53.238;5.686;2022-10-29T10:36:00;15.70;99.90
56512;DHT22;42408;53.238;5.686;2022-10-29T10:38:26;15.60;99.90
56512;DHT22;42408;53.238;5.686;2022-10-29T10:40:56;15.70;99.90
56512;DHT22;42408;53.238;5.686;2022-10-29T10:43:23;15.60;99.90
56512;DHT22;42408;53.238;5.686;2022-10-29T10:45:54;15.70;99.90
56512;DHT22;42408;53.238;5.686;2022-10-29T10:48:21;15.70;99.90
56512;DHT22;42408;53.238;5.686;2022-10-29T10:50:47;15.70;99.90
56512;DHT22;42408;53.238;5.686;2022-10-29T10:53:16;15.70;99.90
56512;DHT22;42408;53.238;5.686;2022-10-29T10:55:50;15.80;99.90
56512;DHT22;42408;53.238;5.686;2022-10-29T10:58:23;15.90;99.90
56512;DHT22;42408;53.238;5.686;2022-10-29T11:03:44;16.00;99.90
56512;DHT22;42408;53.238;5.686;2022-10-29T11:06:14;16.10;99.90
56512;DHT22;42408;53.238;5.686;2022-10-29T11:08:44;16.10;99.90
56512;DHT22;42408;53.238;5.686;2022-10-29T11:13:36;16.30;99.90
56512;DHT22;42408;53.238;5.686;2022-10-29T11:16:06;16.30;99.90
56512;DHT22;42408;53.238;5.686;2022-10-29T11:18:35;16.30;99.90
56512;DHT22;42408;53.238;5.686;2022-10-29T11:21:05;16.30;99.90
56512;DHT22;42408;53.238;5.686;2022-10-29T11:26:19;16.40;99.90
56512;DHT22;42408;53.238;5.686;2022-10-29T11:28:48;16.40;99.90
56512;DHT22;42408;53.238;5.686;2022-10-29T11:31:28;16.40;99.90
56512;DHT22;42408;53.238;5.686;2022-10-29T11:36:22;16.60;99.90
56512;DHT22;42408;53.238;5.686;2022-10-29T11:38:59;16.60;99.90
56512;DHT22;42408;53.238;5.686;2022-10-29T11:41:33;16.70;99.90
56512;DHT22;42408;53.238;5.686;2022-10-29T11:44:01;16.80;99.90
56512;DHT22;42408;53.238;5.686;2022-10-29T12:11:17;17.30;99.90
56512;DHT22;42408;53.238;5.686;2022-10-29T12:16:12;17.60;99.90
56512;DHT22;42408;53.238;5.686;2022-10-29T12:18:41;17.70;99.90
56512;DHT22;42408;53.238;5.686;2022-10-29T12:26:28;17.90;99.90
56512;DHT22;42408;53.238;5.686;2022-10-29T12:28:57;17.90;99.90
56512;DHT22;42408;53.238;5.686;2022-10-29T12:31:32;18.00;99.90
56512;DHT22;42408;53.238;5.686;2022-10-29T12:38:55;18.00;99.90
56512;DHT22;42408;53.238;5.686;2022-10-29T12:41:25;18.00;99.90
56512;DHT22;42408;53.238;5.686;2022-10-29T12:43:57;18.00;99.90
56512;DHT22;42408;53.238;5.686;2022-10-29T12:49:00;18.00;99.90
56512;DHT22;42408;53.238;5.686;2022-10-29T12:56:37;18.00;99.90
56512;DHT22;42408;53.238;5.686;2022-10-29T13:01:47;18.10;99.90
56512;DHT22;42408;53.238;5.686;2022-10-29T13:04:31;18.20;99.90
56512;DHT22;42408;53.238;5.686;2022-10-29T13:07:08;18.30;99.90
56512;DHT22;42408;53.238;5.686;2022-10-29T13:09:46;18.30;99.90
56512;DHT22;42408;53.238;5.686;2022-10-29T13:12:12;18.30;99.90
56512;DHT22;42408;53.238;5.686;2022-10-29T13:17:04;18.30;99.90
56512;DHT22;42408;53.238;5.686;2022-10-29T13:24:26;18.40;99.90
56512;DHT22;42408;53.238;5.686;2022-10-29T13:26:52;18.50;99.90
56512;DHT22;42408;53.238;5.686;2022-10-29T13:32:04;18.60;99.90
56512;DHT22;42408;53.238;5.686;2022-10-29T13:34:52;18.60;99.90
56512;DHT22;42408;53.238;5.686;2022-10-29T13:42:47;18.70;99.90
56512;DHT22;42408;53.238;5.686;2022-10-29T13:45:17;18.70;99.90
56512;DHT22;42408;53.238;5.686;2022-10-29T13:47:43;18.70;99.90
56512;DHT22;42408;53.238;5.686;2022-10-29T13:50:10;18.70;99.90
56512;DHT22;42408;53.238;5.686;2022-10-29T13:52:38;18.70;99.90
56512;DHT22;42408;53.238;5.686;2022-10-29T13:55:06;18.70;99.90
56512;DHT22;42408;53.238;5.686;2022-10-29T14:10:17;18.40;99.90
56512;DHT22;42408;53.238;5.686;2022-10-29T14:12:45;18.40;99.90
56512;DHT22;42408;53.238;5.686;2022-10-29T14:15:12;18.40;99.90
56512;DHT22;42408;53.238;5.686;2022-10-29T14:17:42;18.40;99.90
56512;DHT22;42408;53.238;5.686;2022-10-29T14:20:18;18.30;99.90
56512;DHT22;42408;53.238;5.686;2022-10-29T14:22:44;18.40;99.90
56512;DHT22;42408;53.238;5.686;2022-10-29T14:28:35;18.40;99.90
56512;DHT22;42408;53.238;5.686;2022-10-29T14:30:36;18.40;99.90
56512;DHT22;42408;53.238;5.686;2022-10-29T14:33:15;18.40;99.90
56512;DHT22;42408;53.238;5.686;2022-10-29T14:35:40;18.50;99.90
56512;DHT22;42408;53.238;5.686;2022-10-29T14:38:09;18.50;99.90
56512;DHT22;42408;53.238;5.686;2022-10-29T14:40:36;18.60;99.90
56512;DHT22;42408;53.238;5.686;2022-10-29T14:43:01;18.60;99.90
56512;DHT22;42408;53.238;5.686;2022-10-29T14:45:28;18.70;99.90
56512;DHT22;42408;53.238;5.686;2022-10-29T14:47:55;18.70;99.90
56512;DHT22;42408;53.238;5.686;2022-10-29T14:50:22;18.80;99.90
56512;DHT22;42408;53.238;5.686;2022-10-29T14:52:52;18.70;99.90
56512;DHT22;42408;53.238;5.686;2022-10-29T14:55:20;18.70;99.90
56512;DHT22;42408;53.238;5.686;2022-10-29T15:00:25;18.60;99.90
56512;DHT22;42408;53.238;5.686;2022-10-29T15:02:53;18.60;99.90
56512;DHT22;42408;53.238;5.686;2022-10-29T15:07:47;18.50;99.90
56512;DHT22;42408;53.238;5.686;2022-10-29T15:10:17;18.50;99.90
56512;DHT22;42408;53.238;5.686;2022-10-29T15:12:43;18.50;99.90
56512;DHT22;42408;53.238;5.686;2022-10-29T15:15:38;18.40;99.90
56512;DHT22;42408;53.238;5.686;2022-10-29T15:20:25;18.30;99.90
56512;DHT22;42408;53.238;5.686;2022-10-29T15:22:53;18.30;99.90
56512;DHT22;42408;53.238;5.686;2022-10-29T15:25:22;18.20;99.90
56512;DHT22;42408;53.238;5.686;2022-10-29T15:27:48;18.20;99.90
56512;DHT22;42408;53.238;5.686;2022-10-29T15:30:20;18.10;99.90
56512;DHT22;42408;53.238;5.686;2022-10-29T15:32:46;18.10;99.90
56512;DHT22;42408;53.238;5.686;2022-10-29T15:35:17;18.10;99.90
56512;DHT22;42408;53.238;5.686;2022-10-29T15:37:43;18.00;99.90
56512;DHT22;42408;53.238;5.686;2022-10-29T15:40:16;17.90;99.90
56512;DHT22;42408;53.238;5.686;2022-10-29T15:42:42;17.90;99.90
56512;DHT22;42408;53.238;5.686;2022-10-29T15:47:45;17.80;99.90
56512;DHT22;42408;53.238;5.686;2022-10-29T15:50:17;17.80;99.90
56512;DHT22;42408;53.238;5.686;2022-10-29T15:57:39;17.60;99.90
56512;DHT22;42408;53.238;5.686;2022-10-29T16:00:05;17.60;99.90
56512;DHT22;42408;53.238;5.686;2022-10-29T16:02:31;17.50;99.90
56512;DHT22;42408;53.238;5.686;2022-10-29T16:04:57;17.50;99.90
56512;DHT22;42408;53.238;5.686;2022-10-29T16:07:22;17.50;99.90
56512;DHT22;42408;53.238;5.686;2022-10-29T16:09:49;17.40;99.90
56512;DHT22;42408;53.238;5.686;2022-10-29T16:12:15;17.40;99.90
56512;DHT22;42408;53.238;5.686;2022-10-29T16:14:41;17.40;99.90
56512;DHT22;42408;53.238;5.686;2022-10-29T16:17:11;17.40;99.90
56512;DHT22;42408;53.238;5.686;2022-10-29T16:19:37;17.40;99.90
56512;DHT22;42408;53.238;5.686;2022-10-29T16:22:03;17.40;99.90
56512;DHT22;42408;53.238;5.686;2022-10-29T16:24:29;17.30;99.90
56512;DHT22;42408;53.238;5.686;2022-10-29T16:26:54;17.30;99.90
56512;DHT22;42408;53.238;5.686;2022-10-29T16:29:20;17.30;99.90
56512;DHT22;42408;53.238;5.686;2022-10-29T16:31:45;17.30;99.90
56512;DHT22;42408;53.238;5.686;2022-10-29T16:34:11;17.30;99.90
56512;DHT22;42408;53.238;5.686;2022-10-29T16:36:38;17.20;99.90
56512;DHT22;42408;53.238;5.686;2022-10-29T16:39:03;17.20;99.90
56512;DHT22;42408;53.238;5.686;2022-10-29T16:41:29;17.10;99.90
56512;DHT22;42408;53.238;5.686;2022-10-29T16:43:55;17.20;99.90
56512;DHT22;42408;53.238;5.686;2022-10-29T16:46:20;17.10;99.90
56512;DHT22;42408;53.238;5.686;2022-10-29T16:48:46;17.20;99.90
56512;DHT22;42408;53.238;5.686;2022-10-29T16:51:12;17.20;99.90
56512;DHT22;42408;53.238;5.686;2022-10-29T16:53:37;17.10;99.90
56512;DHT22;42408;53.238;5.686;2022-10-29T16:56:03;17.20;99.90
56512;DHT22;42408;53.238;5.686;2022-10-29T16:58:29;17.10;99.90
56512;DHT22;42408;53.238;5.686;2022-10-29T17:01:01;17.10;99.90
56512;DHT22;42408;53.238;5.686;2022-10-29T17:03:27;17.10;99.90
56512;DHT22;42408;53.238;5.686;2022-10-29T17:05:52;17.10;99.90
56512;DHT22;42408;53.238;5.686;2022-10-29T17:08:18;17.00;99.90
56512;DHT22;42408;53.238;5.686;2022-10-29T17:10:44;17.00;99.90
56512;DHT22;42408;53.238;5.686;2022-10-29T17:13:09;17.00;99.90
56512;DHT22;42408;53.238;5.686;2022-10-29T17:15:39;17.00;99.90
56512;DHT22;42408;53.238;5.686;2022-10-29T17:18:05;17.00;99.90
56512;DHT22;42408;53.238;5.686;2022-10-29T17:20:30;17.00;99.90
56512;DHT22;42408;53.238;5.686;2022-10-29T17:22:56;17.00;99.90
56512;DHT22;42408;53.238;5.686;2022-10-29T17:25:21;17.00;99.90
56512;DHT22;42408;53.238;5.686;2022-10-29T17:27:47;17.00;99.90
56512;DHT22;42408;53.238;5.686;2022-10-29T17:30:12;17.00;99.90
56512;DHT22;42408;53.238;5.686;2022-10-29T17:32:38;17.00;99.90
56512;DHT22;42408;53.238;5.686;2022-10-29T17:35:03;16.90;99.90
56512;DHT22;42408;53.238;5.686;2022-10-29T17:37:29;17.00;99.90
56512;DHT22;42408;53.238;5.686;2022-10-29T17:39:55;16.90;99.90
56512;DHT22;42408;53.238;5.686;2022-10-29T17:42:20;17.00;99.90
56512;DHT22;42408;53.238;5.686;2022-10-29T17:44:46;16.90;99.90
56512;DHT22;42408;53.238;5.686;2022-10-29T17:47:11;16.90;99.90
56512;DHT22;42408;53.238;5.686;2022-10-29T17:49:37;16.90;99.90
56512;DHT22;42408;53.238;5.686;2022-10-29T17:52:03;16.80;99.90
56512;DHT22;42408;53.238;5.686;2022-10-29T17:54:29;16.80;99.90
56512;DHT22;42408;53.238;5.686;2022-10-29T17:56:54;16.80;99.90
56512;DHT22;42408;53.238;5.686;2022-10-29T17:59:20;16.80;99.90
56512;DHT22;42408;53.238;5.686;2022-10-29T18:01:45;16.80;99.90
56512;DHT22;42408;53.238;5.686;2022-10-29T18:04:11;16.80;99.90
56512;DHT22;42408;53.238;5.686;2022-10-29T18:06:36;16.80;99.90
56512;DHT22;42408;53.238;5.686;2022-10-29T18:09:02;16.70;99.90
56512;DHT22;42408;53.238;5.686;2022-10-29T18:11:28;16.70;99.90
56512;DHT22;42408;53.238;5.686;2022-10-29T18:13:54;16.70;99.90
56512;DHT22;42408;53.238;5.686;2022-10-29T18:16:21;16.60;99.90
56512;DHT22;42408;53.238;5.686;2022-10-29T18:18:47;16.60;99.90
56512;DHT22;42408;53.238;5.686;2022-10-29T18:21:14;16.60;99.90
56512;DHT22;42408;53.238;5.686;2022-10-29T18:23:40;16.60;99.90
56512;DHT22;42408;53.238;5.686;2022-10-29T18:28:48;16.60;99.90